KLOZ

London-Corbin Arpt-Magee Field Airport

London, Kentucky, USA
METAR KLOZ 212253Z AUTO 20006KT 10SM CLR 27/21 A2978 RMK AO2 SLP070 T02670206
Observed Flight Rules
Jun-21 @ 22:53 UTC (60 minutes ago) Visual Flight Rules
Wind Visibility Clouds
200° at 6 knots 10 miles
  • Clear skies
Temperatures Readings
Current 27°C / 81°F
Dewpoint 21°C / 70°F
Humidity 70%
Altimeter 29.78" Hg
Pressure 1007 hPa
Elevation 362
METAR KLOZ 212253Z AUTO 20006KT 10SM CLR 27/21 A2978 RMK AO2 SLP070 T02670206
Observed Flight Rules
Jun-21 @ 22:53 UTC
(60 minutes ago)
VFR
Wind Visibility
200° at 6 knots 10 miles
Clouds
  • Clear skies
Temperature Dewpoint
27°C / 81°F 21°C / 70°F
Humidity Altimeter Pressure
70% 29.78" Hg 1007 hPa